sensor_id;sensor_type;location;lat;lon;timestamp;pressure;altitude;pressure_sealevel;temperature;humidity
19736;BME280;32064;49.310;8.646;2022-07-29T00:02:21;100237.69;;;25.63;46.75
19736;BME280;32064;49.310;8.646;2022-07-29T00:04:46;100233.56;;;25.61;47.17
19736;BME280;32064;49.310;8.646;2022-07-29T00:07:12;100229.63;;;25.57;47.91
19736;BME280;32064;49.310;8.646;2022-07-29T00:09:37;100224.47;;;25.48;47.89
19736;BME280;32064;49.310;8.646;2022-07-29T00:12:03;100217.41;;;25.41;48.35
19736;BME280;32064;49.310;8.646;2022-07-29T00:14:28;100222.59;;;25.36;49.22
19736;BME280;32064;49.310;8.646;2022-07-29T00:16:54;100208.13;;;25.37;49.15
19736;BME280;32064;49.310;8.646;2022-07-29T00:19:19;100213.50;;;25.37;48.85
19736;BME280;32064;49.310;8.646;2022-07-29T00:21:45;100211.00;;;25.35;49.28
19736;BME280;32064;49.310;8.646;2022-07-29T00:24:10;100215.16;;;25.31;49.60
19736;BME280;32064;49.310;8.646;2022-07-29T00:26:36;100208.94;;;25.30;50.07
19736;BME280;32064;49.310;8.646;2022-07-29T00:29:03;100215.38;;;25.23;50.50
19736;BME280;32064;49.310;8.646;2022-07-29T00:31:29;100207.06;;;25.24;50.75
19736;BME280;32064;49.310;8.646;2022-07-29T00:33:55;100201.47;;;25.19;50.66
19736;BME280;32064;49.310;8.646;2022-07-29T00:36:20;100206.22;;;25.10;51.04
19736;BME280;32064;49.310;8.646;2022-07-29T00:38:49;100214.31;;;25.04;51.44
19736;BME280;32064;49.310;8.646;2022-07-29T00:41:16;100208.50;;;25.07;51.36
19736;BME280;32064;49.310;8.646;2022-07-29T00:43:42;100202.72;;;25.03;51.31
19736;BME280;32064;49.310;8.646;2022-07-29T00:46:08;100204.59;;;25.03;51.06
19736;BME280;32064;49.310;8.646;2022-07-29T00:48:34;100196.91;;;25.00;51.43
19736;BME280;32064;49.310;8.646;2022-07-29T00:51:01;100199.19;;;25.03;51.46
19736;BME280;32064;49.310;8.646;2022-07-29T00:53:27;100200.84;;;24.97;51.74
19736;BME280;32064;49.310;8.646;2022-07-29T00:55:54;100207.47;;;24.95;51.55
19736;BME280;32064;49.310;8.646;2022-07-29T00:58:21;100209.13;;;24.96;52.07
19736;BME280;32064;49.310;8.646;2022-07-29T01:00:46;100203.75;;;24.96;51.92
19736;BME280;32064;49.310;8.646;2022-07-29T01:03:12;100197.53;;;24.95;51.82
19736;BME280;32064;49.310;8.646;2022-07-29T01:05:38;100199.41;;;24.95;52.03
19736;BME280;32064;49.310;8.646;2022-07-29T01:08:06;100190.50;;;24.94;51.61
19736;BME280;32064;49.310;8.646;2022-07-29T01:10:31;100202.28;;;24.93;52.26
19736;BME280;32064;49.310;8.646;2022-07-29T01:12:58;100197.13;;;24.92;51.75
19736;BME280;32064;49.310;8.646;2022-07-29T01:15:26;100196.50;;;24.90;52.75
19736;BME280;32064;49.310;8.646;2022-07-29T01:18:01;100194.84;;;24.89;51.99
19736;BME280;32064;49.310;8.646;2022-07-29T01:31:54;100175.34;;;24.67;53.09
19736;BME280;32064;49.310;8.646;2022-07-29T01:34:24;100182.59;;;24.59;53.84
19736;BME280;32064;49.310;8.646;2022-07-29T01:36:55;100177.00;;;24.54;54.31
19736;BME280;32064;49.310;8.646;2022-07-29T01:39:33;100170.59;;;24.49;54.41
19736;BME280;32064;49.310;8.646;2022-07-29T01:42:14;100164.50;;;24.40;55.32
19736;BME280;32064;49.310;8.646;2022-07-29T01:45:00;100169.47;;;24.36;55.00
19736;BME280;32064;49.310;8.646;2022-07-29T01:47:35;100160.78;;;24.34;55.57
19736;BME280;32064;49.310;8.646;2022-07-29T01:50:06;100156.63;;;24.25;56.78
19736;BME280;32064;49.310;8.646;2022-07-29T01:52:39;100155.56;;;24.19;56.19
19736;BME280;32064;49.310;8.646;2022-07-29T01:55:10;100153.94;;;24.25;56.20
19736;BME280;32064;49.310;8.646;2022-07-29T01:57:37;100153.09;;;24.25;55.63
19736;BME280;32064;49.310;8.646;2022-07-29T02:00:05;100160.75;;;24.21;55.63
19736;BME280;32064;49.310;8.646;2022-07-29T02:02:32;100162.16;;;24.10;56.25
19736;BME280;32064;49.310;8.646;2022-07-29T02:05:00;100169.22;;;24.18;56.98
19736;BME280;32064;49.310;8.646;2022-07-29T02:07:29;100153.28;;;24.16;56.02
19736;BME280;32064;49.310;8.646;2022-07-29T02:09:58;100158.66;;;24.16;56.78
19736;BME280;32064;49.310;8.646;2022-07-29T02:12:25;100155.34;;;24.14;56.13
19736;BME280;32064;49.310;8.646;2022-07-29T02:14:53;100165.50;;;24.12;56.41
19736;BME280;32064;49.310;8.646;2022-07-29T02:17:26;100161.75;;;24.07;56.46
19736;BME280;32064;49.310;8.646;2022-07-29T02:19:56;100160.94;;;24.06;57.17
19736;BME280;32064;49.310;8.646;2022-07-29T02:22:26;100159.25;;;24.05;56.41
19736;BME280;32064;49.310;8.646;2022-07-29T02:24:55;100156.78;;;24.04;56.66
19736;BME280;32064;49.310;8.646;2022-07-29T02:27:22;100163.81;;;24.05;57.23
19736;BME280;32064;49.310;8.646;2022-07-29T02:29:52;100168.75;;;24.01;57.40
19736;BME280;32064;49.310;8.646;2022-07-29T02:32:19;100160.88;;;24.00;57.45
19736;BME280;32064;49.310;8.646;2022-07-29T02:34:47;100160.06;;;23.99;58.09
19736;BME280;32064;49.310;8.646;2022-07-29T02:37:13;100170.00;;;23.98;57.17
19736;BME280;32064;49.310;8.646;2022-07-29T02:39:42;100167.91;;;23.94;57.08
19736;BME280;32064;49.310;8.646;2022-07-29T02:42:12;100164.56;;;23.92;58.45
19736;BME280;32064;49.310;8.646;2022-07-29T02:44:38;100167.91;;;23.94;58.08
19736;BME280;32064;49.310;8.646;2022-07-29T02:47:30;100160.63;;;23.88;58.50
19736;BME280;32064;49.310;8.646;2022-07-29T02:50:02;100171.38;;;23.88;57.84
19736;BME280;32064;49.310;8.646;2022-07-29T02:52:35;100175.13;;;23.87;58.21
19736;BME280;32064;49.310;8.646;2022-07-29T02:55:19;100181.72;;;23.84;58.01
19736;BME280;32064;49.310;8.646;2022-07-29T02:57:54;100176.75;;;23.88;57.78
19736;BME280;32064;49.310;8.646;2022-07-29T03:00:31;100179.63;;;23.86;58.47
19736;BME280;32064;49.310;8.646;2022-07-29T03:03:02;100184.81;;;23.88;58.46
19736;BME280;32064;49.310;8.646;2022-07-29T03:05:29;100176.94;;;23.86;58.35
19736;BME280;32064;49.310;8.646;2022-07-29T03:08:00;100178.63;;;23.87;57.88
19736;BME280;32064;49.310;8.646;2022-07-29T03:10:26;100173.44;;;23.86;58.24
19736;BME280;32064;49.310;8.646;2022-07-29T03:12:54;100172.84;;;23.84;59.09
19736;BME280;32064;49.310;8.646;2022-07-29T03:15:19;100170.34;;;23.82;59.38
19736;BME280;32064;49.310;8.646;2022-07-29T03:17:46;100176.75;;;23.81;58.67
19736;BME280;32064;49.310;8.646;2022-07-29T03:20:12;100176.28;;;23.78;59.02
19736;BME280;32064;49.310;8.646;2022-07-29T03:22:40;100177.16;;;23.78;58.36
19736;BME280;32064;49.310;8.646;2022-07-29T03:25:10;100175.88;;;23.81;58.33
19736;BME280;32064;49.310;8.646;2022-07-29T03:27:36;100174.06;;;23.81;59.31
19736;BME280;32064;49.310;8.646;2022-07-29T03:30:02;100173.59;;;23.78;59.32
19736;BME280;32064;49.310;8.646;2022-07-29T03:32:27;100172.59;;;23.79;58.98
19736;BME280;32064;49.310;8.646;2022-07-29T03:34:53;100175.88;;;23.81;58.11
19736;BME280;32064;49.310;8.646;2022-07-29T03:37:18;100170.09;;;23.77;59.09
19736;BME280;32064;49.310;8.646;2022-07-29T03:39:44;100174.22;;;23.73;59.19
19736;BME280;32064;49.310;8.646;2022-07-29T03:42:13;100170.50;;;23.74;58.40
19736;BME280;32064;49.310;8.646;2022-07-29T03:44:41;100166.81;;;23.75;58.14
19736;BME280;32064;49.310;8.646;2022-07-29T03:47:09;100180.22;;;23.75;59.02
19736;BME280;32064;49.310;8.646;2022-07-29T03:49:36;100178.78;;;23.72;58.37
19736;BME280;32064;49.310;8.646;2022-07-29T03:52:03;100183.50;;;23.70;57.91
19736;BME280;32064;49.310;8.646;2022-07-29T03:54:29;100179.31;;;23.68;58.27
19736;BME280;32064;49.310;8.646;2022-07-29T03:56:57;100181.59;;;23.64;58.78
19736;BME280;32064;49.310;8.646;2022-07-29T03:59:24;100182.19;;;23.66;58.81
19736;BME280;32064;49.310;8.646;2022-07-29T04:01:51;100181.78;;;23.63;58.07
19736;BME280;32064;49.310;8.646;2022-07-29T04:04:17;100179.72;;;23.65;58.56
19736;BME280;32064;49.310;8.646;2022-07-29T04:06:44;100184.84;;;23.60;58.29
19736;BME280;32064;49.310;8.646;2022-07-29T04:09:10;100179.47;;;23.60;58.41
19736;BME280;32064;49.310;8.646;2022-07-29T04:11:38;100185.91;;;23.59;58.07
19736;BME280;32064;49.310;8.646;2022-07-29T04:14:04;100188.59;;;23.59;58.54
19736;BME280;32064;49.310;8.646;2022-07-29T04:16:29;100191.28;;;23.59;58.78
19736;BME280;32064;49.310;8.646;2022-07-29T04:18:55;100197.03;;;23.56;58.67
19736;BME280;32064;49.310;8.646;2022-07-29T04:21:20;100198.88;;;23.55;58.83
19736;BME280;32064;49.310;8.646;2022-07-29T04:23:45;100205.91;;;23.56;59.12
19736;BME280;32064;49.310;8.646;2022-07-29T04:26:18;100193.50;;;23.55;58.68
19736;BME280;32064;49.310;8.646;2022-07-29T04:28:44;100191.03;;;23.53;58.97
19736;BME280;32064;49.310;8.646;2022-07-29T04:31:10;100190.19;;;23.53;58.61
19736;BME280;32064;49.310;8.646;2022-07-29T04:33:36;100199.91;;;23.54;58.56
19736;BME280;32064;49.310;8.646;2022-07-29T04:36:01;100203.81;;;23.51;58.20
19736;BME280;32064;49.310;8.646;2022-07-29T04:38:27;100202.81;;;23.52;58.40
19736;BME280;32064;49.310;8.646;2022-07-29T04:40:52;100203.00;;;23.51;58.42
19736;BME280;32064;49.310;8.646;2022-07-29T04:43:17;100208.19;;;23.52;59.08
19736;BME280;32064;49.310;8.646;2022-07-29T04:45:43;100203.00;;;23.51;59.63
19736;BME280;32064;49.310;8.646;2022-07-29T04:48:08;100207.78;;;23.56;58.27
19736;BME280;32064;49.310;8.646;2022-07-29T04:50:34;100208.22;;;23.59;58.05
19736;BME280;32064;49.310;8.646;2022-07-29T04:52:59;100199.94;;;23.61;58.68
19736;BME280;32064;49.310;8.646;2022-07-29T04:55:25;100207.81;;;23.62;58.93
19736;BME280;32064;49.310;8.646;2022-07-29T04:57:50;100216.69;;;23.63;58.28
19736;BME280;32064;49.310;8.646;2022-07-29T05:00:16;100204.34;;;23.68;58.44
19736;BME280;32064;49.310;8.646;2022-07-29T05:02:42;100203.97;;;23.71;58.48
19736;BME280;32064;49.310;8.646;2022-07-29T05:05:07;100202.16;;;23.79;58.70
19736;BME280;32064;49.310;8.646;2022-07-29T05:07:33;100206.91;;;23.83;58.63
19736;BME280;32064;49.310;8.646;2022-07-29T05:09:58;100215.84;;;23.90;58.38
19736;BME280;32064;49.310;8.646;2022-07-29T05:12:25;100209.44;;;23.91;57.69
19736;BME280;32064;49.310;8.646;2022-07-29T05:14:51;100213.00;;;23.98;57.95
19736;BME280;32064;49.310;8.646;2022-07-29T05:17:18;100221.09;;;24.05;56.62
19736;BME280;32064;49.310;8.646;2022-07-29T05:19:43;100216.59;;;24.19;56.82
19736;BME280;32064;49.310;8.646;2022-07-29T05:22:09;100224.25;;;24.22;57.08
19736;BME280;32064;49.310;8.646;2022-07-29T05:24:34;100214.13;;;24.24;57.13
19736;BME280;32064;49.310;8.646;2022-07-29T05:27:00;100224.72;;;24.32;55.93
19736;BME280;32064;49.310;8.646;2022-07-29T05:29:25;100217.66;;;24.25;56.16
19736;BME280;32064;49.310;8.646;2022-07-29T05:31:51;100220.34;;;24.31;56.26
19736;BME280;32064;49.310;8.646;2022-07-29T05:34:18;100218.50;;;24.32;56.34
19736;BME280;32064;49.310;8.646;2022-07-29T05:36:44;100218.13;;;24.41;55.58
19736;BME280;32064;49.310;8.646;2022-07-29T05:39:10;100221.88;;;24.47;55.92
19736;BME280;32064;49.310;8.646;2022-07-29T05:41:35;100222.31;;;24.51;55.64
19736;BME280;32064;49.310;8.646;2022-07-29T05:44:01;100223.94;;;24.45;55.62
19736;BME280;32064;49.310;8.646;2022-07-29T05:46:27;100222.53;;;24.49;56.14
19736;BME280;32064;49.310;8.646;2022-07-29T05:48:53;100228.94;;;24.55;54.93
19736;BME280;32064;49.310;8.646;2022-07-29T05:51:18;100232.47;;;24.49;55.69
19736;BME280;32064;49.310;8.646;2022-07-29T05:53:44;100231.03;;;24.66;54.83
19736;BME280;32064;49.310;8.646;2022-07-29T05:56:10;100231.88;;;24.73;54.71
19736;BME280;32064;49.310;8.646;2022-07-29T05:58:35;100234.38;;;24.81;54.29
19736;BME280;32064;49.310;8.646;2022-07-29T06:01:01;100233.31;;;24.82;54.38
19736;BME280;32064;49.310;8.646;2022-07-29T06:03:27;100240.78;;;24.87;53.48
19736;BME280;32064;49.310;8.646;2022-07-29T06:05:53;100246.00;;;24.89;53.38
19736;BME280;32064;49.310;8.646;2022-07-29T06:08:19;100251.38;;;24.89;52.98
19736;BME280;32064;49.310;8.646;2022-07-29T06:10:45;100253.44;;;24.93;53.29
19736;BME280;32064;49.310;8.646;2022-07-29T06:13:11;100247.84;;;24.95;52.58
19736;BME280;32064;49.310;8.646;2022-07-29T06:15:37;100255.75;;;25.03;53.00
19736;BME280;32064;49.310;8.646;2022-07-29T06:18:05;100254.50;;;25.05;52.85
19736;BME280;32064;49.310;8.646;2022-07-29T06:20:34;100256.81;;;25.28;52.77
19736;BME280;32064;49.310;8.646;2022-07-29T06:22:59;100261.56;;;25.40;51.81
19736;BME280;32064;49.310;8.646;2022-07-29T06:25:27;100273.56;;;25.50;51.71
19736;BME280;32064;49.310;8.646;2022-07-29T06:27:54;100268.00;;;25.45;52.28
19736;BME280;32064;49.310;8.646;2022-07-29T06:30:19;100265.69;;;25.49;51.92
19736;BME280;32064;49.310;8.646;2022-07-29T06:32:45;100266.13;;;25.46;52.52
19736;BME280;32064;49.310;8.646;2022-07-29T06:35:11;100265.06;;;25.47;52.14
19736;BME280;32064;49.310;8.646;2022-07-29T06:37:36;100275.66;;;25.55;51.87
19736;BME280;32064;49.310;8.646;2022-07-29T06:40:03;100279.78;;;25.71;52.15
19736;BME280;32064;49.310;8.646;2022-07-29T06:42:47;100271.69;;;25.71;51.91
19736;BME280;32064;49.310;8.646;2022-07-29T06:45:14;100275.81;;;25.67;52.41
19736;BME280;32064;49.310;8.646;2022-07-29T06:47:39;100275.84;;;25.73;52.03
19736;BME280;32064;49.310;8.646;2022-07-29T06:50:05;100280.16;;;25.81;51.82
19736;BME280;32064;49.310;8.646;2022-07-29T06:52:31;100276.84;;;25.92;52.26
19736;BME280;32064;49.310;8.646;2022-07-29T06:54:56;100280.75;;;26.03;51.35
19736;BME280;32064;49.310;8.646;2022-07-29T06:57:21;100277.81;;;26.25;51.00
19736;BME280;32064;49.310;8.646;2022-07-29T06:59:47;100282.72;;;26.34;51.35
19736;BME280;32064;49.310;8.646;2022-07-29T07:02:13;100285.75;;;26.64;50.94
19736;BME280;32064;49.310;8.646;2022-07-29T07:04:39;100288.09;;;26.86;50.39
19736;BME280;32064;49.310;8.646;2022-07-29T07:07:04;100289.19;;;27.10;50.11
19736;BME280;32064;49.310;8.646;2022-07-29T07:09:30;100284.41;;;27.12;49.81
19736;BME280;32064;49.310;8.646;2022-07-29T07:11:55;100291.28;;;27.08;49.75
19736;BME280;32064;49.310;8.646;2022-07-29T07:14:20;100294.59;;;27.10;49.50
19736;BME280;32064;49.310;8.646;2022-07-29T07:16:46;100295.25;;;27.05;50.24
19736;BME280;32064;49.310;8.646;2022-07-29T07:19:11;100296.19;;;26.86;50.21
19736;BME280;32064;49.310;8.646;2022-07-29T07:21:37;100293.94;;;26.83;50.51
19736;BME280;32064;49.310;8.646;2022-07-29T07:24:02;100295.28;;;26.99;50.10
19736;BME280;32064;49.310;8.646;2022-07-29T07:26:28;100290.13;;;27.29;50.39
19736;BME280;32064;49.310;8.646;2022-07-29T07:28:53;100297.91;;;27.44;49.30
19736;BME280;32064;49.310;8.646;2022-07-29T07:31:19;100295.53;;;27.29;49.93
19736;BME280;32064;49.310;8.646;2022-07-29T07:33:45;100297.72;;;27.39;49.71
19736;BME280;32064;49.310;8.646;2022-07-29T07:36:10;100299.66;;;28.37;48.68
19736;BME280;32064;49.310;8.646;2022-07-29T07:38:36;100294.88;;;29.88;45.17
19736;BME280;32064;49.310;8.646;2022-07-29T07:41:02;100300.66;;;29.92;46.04
19736;BME280;32064;49.310;8.646;2022-07-29T07:43:27;100295.03;;;31.20;43.97
19736;BME280;32064;49.310;8.646;2022-07-29T07:45:53;100302.47;;;33.12;40.69
19736;BME280;32064;49.310;8.646;2022-07-29T07:48:18;100297.59;;;31.60;42.71
19736;BME280;32064;49.310;8.646;2022-07-29T07:50:44;100297.00;;;31.07;44.30
19736;BME280;32064;49.310;8.646;2022-07-29T07:53:09;100289.72;;;30.96;44.79
19736;BME280;32064;49.310;8.646;2022-07-29T07:55:40;100291.03;;;30.36;45.48
19736;BME280;32064;49.310;8.646;2022-07-29T07:58:05;100288.38;;;29.77;47.01
19736;BME280;32064;49.310;8.646;2022-07-29T08:00:31;100295.69;;;29.42;47.14
19736;BME280;32064;49.310;8.646;2022-07-29T08:02:57;100289.66;;;29.40;46.56
19736;BME280;32064;49.310;8.646;2022-07-29T08:05:23;100295.50;;;31.67;42.83
19736;BME280;32064;49.310;8.646;2022-07-29T08:07:48;100302.72;;;31.73;42.72
19736;BME280;32064;49.310;8.646;2022-07-29T08:10:15;100303.88;;;31.44;43.84
19736;BME280;32064;49.310;8.646;2022-07-29T08:13:08;100301.50;;;34.86;38.84
19736;BME280;32064;49.310;8.646;2022-07-29T08:15:36;100309.44;;;34.78;38.32
19736;BME280;32064;49.310;8.646;2022-07-29T08:18:01;100310.31;;;35.45;37.58
19736;BME280;32064;49.310;8.646;2022-07-29T08:20:27;100305.41;;;35.37;36.96
19736;BME280;32064;49.310;8.646;2022-07-29T08:22:52;100305.19;;;34.34;39.63
19736;BME280;32064;49.310;8.646;2022-07-29T08:25:19;100310.03;;;35.51;38.10
19736;BME280;32064;49.310;8.646;2022-07-29T08:27:46;100306.72;;;35.75;36.78
19736;BME280;32064;49.310;8.646;2022-07-29T08:30:12;100308.66;;;35.13;38.34
19736;BME280;32064;49.310;8.646;2022-07-29T08:32:38;100315.81;;;33.78;40.37
19736;BME280;32064;49.310;8.646;2022-07-29T08:35:04;100312.13;;;32.98;40.52
19736;BME280;32064;49.310;8.646;2022-07-29T08:37:29;100318.16;;;32.29;41.02
19736;BME280;32064;49.310;8.646;2022-07-29T08:39:54;100309.91;;;31.85;41.63
19736;BME280;32064;49.310;8.646;2022-07-29T08:42:21;100316.47;;;31.67;42.33
19736;BME280;32064;49.310;8.646;2022-07-29T08:44:46;100324.38;;;34.50;37.36
19736;BME280;32064;49.310;8.646;2022-07-29T08:47:14;100320.22;;;36.36;35.82
19736;BME280;32064;49.310;8.646;2022-07-29T08:49:39;100322.28;;;34.77;38.67
19736;BME280;32064;49.310;8.646;2022-07-29T08:52:05;100321.31;;;33.83;39.67
19736;BME280;32064;49.310;8.646;2022-07-29T08:54:32;100317.94;;;34.92;37.67
19736;BME280;32064;49.310;8.646;2022-07-29T08:56:58;100320.72;;;35.58;36.37
19736;BME280;32064;49.310;8.646;2022-07-29T08:59:26;100318.03;;;36.88;35.24
19736;BME280;32064;49.310;8.646;2022-07-29T09:01:53;100315.72;;;37.98;34.40
19736;BME280;32064;49.310;8.646;2022-07-29T09:04:20;100316.16;;;38.53;33.68
19736;BME280;32064;49.310;8.646;2022-07-29T09:06:48;100309.63;;;38.25;33.89
19736;BME280;32064;49.310;8.646;2022-07-29T09:09:15;100306.31;;;37.17;34.27
19736;BME280;32064;49.310;8.646;2022-07-29T09:11:41;100310.94;;;37.21;34.01
19736;BME280;32064;49.310;8.646;2022-07-29T09:14:07;100306.44;;;37.65;33.39
19736;BME280;32064;49.310;8.646;2022-07-29T09:17:02;100313.47;;;37.18;33.42
19736;BME280;32064;49.310;8.646;2022-07-29T09:19:30;100310.97;;;36.27;34.32
19736;BME280;32064;49.310;8.646;2022-07-29T09:21:57;100312.50;;;35.53;35.73
19736;BME280;32064;49.310;8.646;2022-07-29T09:24:35;100308.88;;;34.76;35.85
19736;BME280;32064;49.310;8.646;2022-07-29T09:27:02;100321.81;;;34.23;36.84
19736;BME280;32064;49.310;8.646;2022-07-29T09:29:27;100311.47;;;34.35;37.35
19736;BME280;32064;49.310;8.646;2022-07-29T09:31:54;100318.03;;;34.29;36.35
19736;BME280;32064;49.310;8.646;2022-07-29T09:34:27;100319.91;;;35.47;34.76
19736;BME280;32064;49.310;8.646;2022-07-29T09:36:54;100320.34;;;36.71;33.52
19736;BME280;32064;49.310;8.646;2022-07-29T09:39:30;100324.47;;;36.08;34.04
19736;BME280;32064;49.310;8.646;2022-07-29T09:41:58;100320.72;;;35.63;34.50
19736;BME280;32064;49.310;8.646;2022-07-29T09:44:24;100324.97;;;36.80;33.90
19736;BME280;32064;49.310;8.646;2022-07-29T09:47:01;100317.06;;;38.01;31.88
19736;BME280;32064;49.310;8.646;2022-07-29T09:49:34;100314.81;;;38.08;32.91
19736;BME280;32064;49.310;8.646;2022-07-29T09:52:05;100314.59;;;37.99;32.63
19736;BME280;32064;49.310;8.646;2022-07-29T09:54:31;100316.06;;;38.77;32.06
19736;BME280;32064;49.310;8.646;2022-07-29T09:57:08;100319.50;;;39.40;30.69
19736;BME280;32064;49.310;8.646;2022-07-29T09:59:38;100312.31;;;40.54;29.78
19736;BME280;32064;49.310;8.646;2022-07-29T10:02:14;100315.56;;;40.93;28.86
19736;BME280;32064;49.310;8.646;2022-07-29T10:04:41;100315.44;;;40.75;28.50
19736;BME280;32064;49.310;8.646;2022-07-29T10:07:07;100311.94;;;40.06;29.00
19736;BME280;32064;49.310;8.646;2022-07-29T10:09:34;100310.06;;;40.43;28.94
19736;BME280;32064;49.310;8.646;2022-07-29T10:12:11;100311.53;;;40.76;27.74
19736;BME280;32064;49.310;8.646;2022-07-29T10:14:39;100308.16;;;40.15;28.84
19736;BME280;32064;49.310;8.646;2022-07-29T10:17:06;100306.13;;;40.07;28.88
19736;BME280;32064;49.310;8.646;2022-07-29T10:19:34;100304.59;;;40.29;28.02
19736;BME280;32064;49.310;8.646;2022-07-29T10:22:01;100303.75;;;40.78;27.55
19736;BME280;32064;49.310;8.646;2022-07-29T10:24:29;100294.72;;;40.64;28.28
19736;BME280;32064;49.310;8.646;2022-07-29T10:26:56;100297.63;;;41.26;27.01
19736;BME280;32064;49.310;8.646;2022-07-29T10:29:22;100298.66;;;41.62;27.46
19736;BME280;32064;49.310;8.646;2022-07-29T10:40:26;100296.31;;;42.70;25.22
19736;BME280;32064;49.310;8.646;2022-07-29T10:43:20;100284.50;;;42.21;25.40
19736;BME280;32064;49.310;8.646;2022-07-29T10:45:48;100283.09;;;41.83;26.31
19736;BME280;32064;49.310;8.646;2022-07-29T10:48:14;100286.84;;;41.79;25.80
19736;BME280;32064;49.310;8.646;2022-07-29T10:53:22;100281.31;;;42.36;25.10
19736;BME280;32064;49.310;8.646;2022-07-29T10:55:48;100281.63;;;42.60;25.02
19736;BME280;32064;49.310;8.646;2022-07-29T10:58:20;100275.66;;;42.76;24.74
19736;BME280;32064;49.310;8.646;2022-07-29T11:00:49;100288.13;;;43.08;24.16
19736;BME280;32064;49.310;8.646;2022-07-29T11:03:46;100281.91;;;43.37;23.79
19736;BME280;32064;49.310;8.646;2022-07-29T11:06:13;100282.91;;;43.71;23.95
19736;BME280;32064;49.310;8.646;2022-07-29T11:08:40;100276.75;;;43.01;24.47
19736;BME280;32064;49.310;8.646;2022-07-29T11:16:11;100268.50;;;43.39;23.84
19736;BME280;32064;49.310;8.646;2022-07-29T11:21:40;100269.09;;;43.07;23.49
19736;BME280;32064;49.310;8.646;2022-07-29T11:24:35;100264.50;;;43.02;23.22
19736;BME280;32064;49.310;8.646;2022-07-29T11:29:38;100253.94;;;42.95;23.14
19736;BME280;32064;49.310;8.646;2022-07-29T11:32:13;100242.25;;;42.72;23.41
19736;BME280;32064;49.310;8.646;2022-07-29T11:34:45;100251.84;;;42.49;23.60
19736;BME280;32064;49.310;8.646;2022-07-29T11:39:43;100253.94;;;41.68;23.09
19736;BME280;32064;49.310;8.646;2022-07-29T11:45:03;100255.78;;;40.66;24.45
19736;BME280;32064;49.310;8.646;2022-07-29T11:47:33;100246.41;;;40.39;24.16
19736;BME280;32064;49.310;8.646;2022-07-29T11:50:01;100252.38;;;40.18;24.13
19736;BME280;32064;49.310;8.646;2022-07-29T11:52:37;100245.28;;;39.76;24.86
19736;BME280;32064;49.310;8.646;2022-07-29T11:55:09;100242.00;;;39.88;24.82
19736;BME280;32064;49.310;8.646;2022-07-29T11:57:35;100233.63;;;39.93;25.25
19736;BME280;32064;49.310;8.646;2022-07-29T12:00:01;100239.97;;;39.93;25.43
19736;BME280;32064;49.310;8.646;2022-07-29T12:02:42;100229.75;;;39.53;25.40
19736;BME280;32064;49.310;8.646;2022-07-29T12:05:09;100243.09;;;39.45;25.47
19736;BME280;32064;49.310;8.646;2022-07-29T12:07:36;100234.94;;;39.40;25.59
19736;BME280;32064;49.310;8.646;2022-07-29T12:10:04;100238.13;;;39.47;26.63
19736;BME280;32064;49.310;8.646;2022-07-29T12:12:30;100229.34;;;39.45;26.72
19736;BME280;32064;49.310;8.646;2022-07-29T12:14:55;100221.94;;;39.13;26.75
19736;BME280;32064;49.310;8.646;2022-07-29T12:17:31;100228.78;;;39.29;26.36
19736;BME280;32064;49.310;8.646;2022-07-29T12:19:58;100214.50;;;39.27;27.08
19736;BME280;32064;49.310;8.646;2022-07-29T12:22:30;100227.34;;;39.18;26.14
19736;BME280;32064;49.310;8.646;2022-07-29T12:25:02;100220.19;;;39.17;26.97
19736;BME280;32064;49.310;8.646;2022-07-29T12:27:28;100220.34;;;38.93;26.95
19736;BME280;32064;49.310;8.646;2022-07-29T12:30:01;100206.91;;;39.05;26.69
19736;BME280;32064;49.310;8.646;2022-07-29T12:32:46;100219.75;;;38.96;27.42
19736;BME280;32064;49.310;8.646;2022-07-29T12:35:18;100226.81;;;38.83;26.36
19736;BME280;32064;49.310;8.646;2022-07-29T12:37:46;100223.19;;;38.69;27.50
19736;BME280;32064;49.310;8.646;2022-07-29T12:40:15;100221.81;;;38.85;27.33
19736;BME280;32064;49.310;8.646;2022-07-29T12:43:20;100222.44;;;38.82;27.58
19736;BME280;32064;49.310;8.646;2022-07-29T12:45:54;100211.69;;;38.67;27.91
19736;BME280;32064;49.310;8.646;2022-07-29T12:48:39;100205.38;;;38.48;26.88
19736;BME280;32064;49.310;8.646;2022-07-29T12:51:07;100213.69;;;38.24;27.18
19736;BME280;32064;49.310;8.646;2022-07-29T12:53:34;100220.06;;;38.00;27.58
19736;BME280;32064;49.310;8.646;2022-07-29T12:56:01;100213.28;;;37.68;28.31
19736;BME280;32064;49.310;8.646;2022-07-29T12:58:35;100204.75;;;37.46;29.03
19736;BME280;32064;49.310;8.646;2022-07-29T13:01:10;100207.38;;;37.03;29.40
19736;BME280;32064;49.310;8.646;2022-07-29T13:03:54;100206.09;;;36.90;29.64
19736;BME280;32064;49.310;8.646;2022-07-29T13:11:34;100206.41;;;37.71;28.33
19736;BME280;32064;49.310;8.646;2022-07-29T13:14:00;100209.06;;;37.76;28.51
19736;BME280;32064;49.310;8.646;2022-07-29T13:16:26;100209.25;;;37.61;28.57
19736;BME280;32064;49.310;8.646;2022-07-29T13:19:10;100207.91;;;37.34;27.78
19736;BME280;32064;49.310;8.646;2022-07-29T13:21:37;100206.19;;;37.38;28.41
19736;BME280;32064;49.310;8.646;2022-07-29T13:24:03;100213.88;;;37.12;28.58
19736;BME280;32064;49.310;8.646;2022-07-29T13:26:28;100222.31;;;36.86;28.82
19736;BME280;32064;49.310;8.646;2022-07-29T13:28:54;100223.81;;;36.69;29.20
19736;BME280;32064;49.310;8.646;2022-07-29T13:31:20;100225.84;;;36.48;29.50
19736;BME280;32064;49.310;8.646;2022-07-29T13:33:47;100224.34;;;36.26;29.60
19736;BME280;32064;49.310;8.646;2022-07-29T13:36:13;100225.28;;;36.01;29.24
19736;BME280;32064;49.310;8.646;2022-07-29T13:38:38;100226.47;;;35.80;30.58
19736;BME280;32064;49.310;8.646;2022-07-29T13:41:03;100231.47;;;35.62;30.54